Time;durP1;ratioP1;P1;durP2;ratioP2;P2;SDS_P1;SDS_P2;PMS_P1;PMS_P2;Temp;Humidity;BMP_temperature;BMP_pressure;BME280_temperature;BME280_humidity;BME280_pressure;Samples;Min_cycle;Max_cycle;Signal;HPM_P1;HPM_P2
2023/01/14 00:01:32;;;;;;;16.75;3.60;;;;;;;5.67;100.00;101329.75;5069424;28;20016;-64
2023/01/14 00:03:57;;;;;;;21.73;4.22;;;;;;;5.65;100.00;101340.81;5069247;28;20024;-64
2023/01/14 00:06:26;;;;;;;13.65;3.75;;;;;;;5.62;100.00;101338.06;5069109;28;20094;-64
2023/01/14 00:08:56;;;;;;;14.43;3.63;;;;;;;5.55;100.00;101346.22;5068717;28;20028;-64
2023/01/14 00:14:06;;;;;;;14.80;3.83;;;;;;;5.52;100.00;101357.19;5069420;28;20047;-64
2023/01/14 00:16:31;;;;;;;19.48;4.43;;;;;;;5.51;100.00;101354.50;5069247;28;20387;-64
2023/01/14 00:18:57;;;;;;;11.20;3.28;;;;;;;5.48;100.00;101355.25;5068339;28;20051;-63
2023/01/14 00:21:22;;;;;;;17.63;3.88;;;;;;;5.44;100.00;101360.06;5068683;28;20024;-64
2023/01/14 00:23:47;;;;;;;17.73;3.85;;;;;;;5.43;100.00;101361.78;5068827;28;20074;-64
2023/01/14 00:26:14;;;;;;;13.95;3.95;;;;;;;5.39;100.00;101355.56;5068253;28;20071;-64
2023/01/14 00:28:41;;;;;;;19.88;4.50;;;;;;;5.36;100.00;101357.06;5068803;28;20633;-64
2023/01/14 00:31:10;;;;;;;16.90;3.80;;;;;;;5.33;100.00;101354.28;5068549;28;20024;-64
2023/01/14 00:33:36;;;;;;;17.10;3.72;;;;;;;5.32;100.00;101349.94;5068524;28;20358;-64
2023/01/14 00:36:03;;;;;;;13.95;4.30;;;;;;;5.29;100.00;101348.06;5068596;28;20024;-64
2023/01/14 00:38:29;;;;;;;21.27;3.58;;;;;;;5.29;100.00;101343.81;5068284;28;20024;-64
2023/01/14 00:41:22;;;;;;;18.30;3.90;;;;;;;5.24;100.00;101345.22;5068566;28;20029;-64
2023/01/14 00:43:50;;;;;;;15.68;3.50;;;;;;;5.22;100.00;101351.94;5068572;28;20043;-64
2023/01/14 00:46:19;;;;;;;16.45;4.25;;;;;;;5.19;100.00;101356.88;5068025;28;20089;-64
2023/01/14 00:48:45;;;;;;;17.30;3.95;;;;;;;5.19;100.00;101350.84;5068235;28;20056;-64
2023/01/14 00:51:11;;;;;;;15.77;4.13;;;;;;;5.16;100.00;101351.56;5068339;28;20125;-64
2023/01/14 00:53:38;;;;;;;22.70;4.38;;;;;;;5.13;100.00;101356.50;5067786;28;20154;-64
2023/01/14 00:56:04;;;;;;;19.00;4.07;;;;;;;5.11;100.00;101348.69;5068196;28;20024;-64
2023/01/14 00:58:30;;;;;;;19.58;3.63;;;;;;;5.13;100.00;101361.63;5068211;28;20362;-64
2023/01/14 01:00:56;;;;;;;19.10;4.38;;;;;;;5.09;100.00;101345.13;5068159;28;20077;-64
2023/01/14 01:03:21;;;;;;;18.48;4.53;;;;;;;5.12;100.00;101354.72;5068226;28;20023;-64
2023/01/14 01:05:48;;;;;;;15.57;3.63;;;;;;;5.09;100.00;101350.28;5067800;28;20082;-64
2023/01/14 01:08:16;;;;;;;23.77;5.60;;;;;;;5.07;100.00;101353.56;5068217;28;20111;-64
2023/01/14 01:10:42;;;;;;;22.80;4.72;;;;;;;5.09;100.00;101355.41;5068000;28;20103;-64
2023/01/14 01:13:08;;;;;;;21.70;4.50;;;;;;;5.07;100.00;101356.13;5067692;28;20033;-64
2023/01/14 01:15:38;;;;;;;30.23;5.35;;;;;;;5.07;100.00;101367.28;5067950;28;20028;-64
2023/01/14 01:18:05;;;;;;;27.08;4.55;;;;;;;5.08;100.00;101363.91;5067963;28;20051;-64
2023/01/14 01:20:31;;;;;;;19.55;5.25;;;;;;;5.05;100.00;101359.47;5067555;28;20028;-64
2023/01/14 01:22:56;;;;;;;18.48;4.43;;;;;;;5.03;100.00;101355.94;5067982;28;20483;-64
2023/01/14 01:25:22;;;;;;;20.33;4.28;;;;;;;5.03;100.00;101350.81;5068087;28;20024;-64
2023/01/14 01:27:47;;;;;;;21.80;5.45;;;;;;;5.01;100.00;101354.94;5067959;28;20028;-64
2023/01/14 01:30:13;;;;;;;23.70;4.90;;;;;;;5.02;100.00;101355.81;5067262;28;20040;-64
2023/01/14 01:32:38;;;;;;;19.58;4.43;;;;;;;5.01;100.00;101354.94;5067337;28;20074;-64
2023/01/14 01:35:04;;;;;;;24.38;4.22;;;;;;;5.00;100.00;101348.00;5067577;28;20062;-64
2023/01/14 01:37:30;;;;;;;24.50;5.13;;;;;;;4.97;100.00;101358.09;5067143;28;20030;-64
2023/01/14 01:39:55;;;;;;;27.45;5.80;;;;;;;4.96;100.00;101353.78;5067538;28;20028;-64
2023/01/14 01:42:23;;;;;;;28.08;5.05;;;;;;;4.95;100.00;101351.97;5067658;28;20115;-64
2023/01/14 01:44:48;;;;;;;19.85;4.97;;;;;;;4.95;100.00;101351.97;5067884;28;20031;-64
2023/01/14 01:47:14;;;;;;;20.90;4.88;;;;;;;4.92;100.00;101354.34;5067360;28;20029;-64
2023/01/14 01:49:40;;;;;;;23.42;4.78;;;;;;;4.89;100.00;101346.47;5067360;28;20025;-64
2023/01/14 01:52:14;;;;;;;21.05;4.50;;;;;;;4.89;100.00;101359.31;5067734;28;20086;-64
2023/01/14 01:54:47;;;;;;;17.95;4.32;;;;;;;4.89;100.00;101362.75;5067541;28;20544;-64
2023/01/14 01:57:15;;;;;;;21.13;4.47;;;;;;;4.87;100.00;101360.88;5067652;28;20029;-64
2023/01/14 01:59:48;;;;;;;21.90;4.80;;;;;;;4.85;100.00;101359.91;5066829;28;20028;-64
2023/01/14 02:02:15;;;;;;;23.42;5.07;;;;;;;4.83;100.00;101357.22;5067722;28;20357;-64
2023/01/14 02:04:40;;;;;;;24.35;5.30;;;;;;;4.82;100.00;101360.59;5067723;28;20477;-64
2023/01/14 02:07:20;;;;;;;23.90;4.90;;;;;;;4.82;100.00;101344.28;5067104;28;20027;-64
2023/01/14 02:09:47;;;;;;;25.98;5.57;;;;;;;4.83;100.00;101346.06;5067618;28;20028;-64
2023/01/14 02:12:21;;;;;;;26.93;4.87;;;;;;;4.82;100.00;101339.16;5067686;28;20541;-64
2023/01/14 02:14:55;;;;;;;27.75;4.72;;;;;;;4.80;100.00;101336.50;5068563;28;20491;-64
2023/01/14 02:17:45;;;;;;;21.73;5.25;;;;;;;4.79;100.00;101329.56;5071348;28;20024;-64
2023/01/14 02:20:15;;;;;;;33.03;6.80;;;;;;;4.74;100.00;101326.72;5070955;28;20031;-64
2023/01/14 02:22:59;;;;;;;23.85;5.63;;;;;;;4.73;100.00;101319.78;5070883;28;20089;-64
2023/01/14 02:25:44;;;;;;;19.60;4.72;;;;;;;4.71;100.00;101298.28;5070587;28;20536;-64
2023/01/14 02:28:24;;;;;;;26.10;5.07;;;;;;;4.72;100.00;101297.47;5070325;28;20024;-64
2023/01/14 02:31:00;;;;;;;27.07;5.13;;;;;;;4.69;100.00;101287.03;5069810;28;20472;-63
2023/01/14 02:33:52;;;;;;;21.77;4.55;;;;;;;4.70;100.00;101273.38;5070295;28;20025;-64
2023/01/14 02:36:35;;;;;;;18.70;4.17;;;;;;;4.67;100.00;101273.19;5070260;28;20020;-64
2023/01/14 02:39:15;;;;;;;23.10;4.60;;;;;;;4.67;100.00;101268.06;5069825;28;20050;-64
2023/01/14 02:44:38;;;;;;;21.02;5.57;;;;;;;4.69;100.00;101248.50;5070223;28;20502;-64
2023/01/14 02:47:18;;;;;;;26.10;4.97;;;;;;;4.65;100.00;101254.25;5070526;28;20024;-64
2023/01/14 02:49:48;;;;;;;22.83;4.82;;;;;;;4.64;100.00;101252.47;5070108;28;20484;-64
2023/01/14 02:52:14;;;;;;;22.02;4.95;;;;;;;4.63;100.00;101263.50;5069805;28;20045;-64
2023/01/14 02:54:39;;;;;;;22.60;5.83;;;;;;;4.65;100.00;101254.25;5069958;28;20511;-64
2023/01/14 02:57:32;;;;;;;28.58;6.05;;;;;;;4.66;100.00;101256.00;5069831;28;20024;-64
2023/01/14 03:00:24;;;;;;;28.17;5.05;;;;;;;4.63;100.00;101245.53;5068607;28;20036;-64
2023/01/14 03:03:01;;;;;;;20.10;4.43;;;;;;;4.61;100.00;101253.16;5069804;28;20477;-64
2023/01/14 03:05:45;;;;;;;20.30;5.73;;;;;;;4.60;100.00;101255.63;5069360;28;20020;-64
2023/01/14 03:08:53;;;;;;;23.03;5.43;;;;;;;4.61;100.00;101244.56;5069777;28;20060;-64
2023/01/14 03:11:18;;;;;;;30.23;4.22;;;;;;;4.59;100.00;101248.72;5070090;28;20063;-64
2023/01/14 03:14:19;;;;;;;27.70;5.63;;;;;;;4.60;100.00;101245.34;5069291;28;20039;-64
2023/01/14 03:16:54;;;;;;;20.42;4.63;;;;;;;4.60;100.00;101235.09;5069402;28;20029;-64
2023/01/14 03:19:28;;;;;;;21.57;5.53;;;;;;;4.59;100.00;101223.06;5069607;28;20028;-64
2023/01/14 03:21:57;;;;;;;24.33;5.03;;;;;;;4.58;100.00;101219.59;5069264;28;20020;-64
2023/01/14 03:24:33;;;;;;;26.40;4.65;;;;;;;4.61;100.00;101213.75;5069237;28;20052;-64
2023/01/14 03:27:12;;;;;;;24.70;5.43;;;;;;;4.61;100.00;101206.03;5067712;28;20020;-64
2023/01/14 03:29:42;;;;;;;34.25;5.90;;;;;;;4.63;100.00;101217.31;5069336;28;20028;-64
2023/01/14 03:32:30;;;;;;;21.52;4.25;;;;;;;4.61;100.00;101217.22;5068934;28;20028;-63
2023/01/14 03:35:20;;;;;;;21.73;4.43;;;;;;;4.64;100.00;101208.81;5048766;28;20029;-64
2023/01/14 03:38:02;;;;;;;21.10;4.27;;;;;;;4.66;100.00;101200.41;5048944;28;20027;-64
2023/01/14 03:40:30;;;;;;;24.87;4.53;;;;;;;4.71;100.00;101213.56;5048895;28;20412;-64
2023/01/14 03:43:01;;;;;;;21.47;4.27;;;;;;;4.70;100.00;101204.06;5048883;28;20170;-64
2023/01/14 03:45:29;;;;;;;;;;;;;;;4.72;100.00;101209.28;5048840;28;20381;-64
2023/01/14 03:47:55;;;;;;;13.50;3.53;;;;;;;4.71;100.00;101202.38;5048946;28;19909;-64
2023/01/14 03:50:26;;;;;;;15.55;3.63;;;;;;;4.74;100.00;101203.47;5048847;28;20060;-64
2023/01/14 03:53:17;;;;;;;15.47;3.63;;;;;;;4.72;100.00;101197.34;5048891;28;20086;-64
2023/01/14 03:55:53;;;;;;;23.65;4.45;;;;;;;4.73;100.00;101196.53;5048957;28;20037;-64
2023/01/14 03:58:51;;;;;;;16.77;4.37;;;;;;;4.75;100.00;101181.25;5049080;28;20028;-63
2023/01/14 04:01:25;;;;;;;19.48;3.75;;;;;;;4.79;100.00;101180.63;5048352;28;20033;-64
2023/01/14 04:03:51;;;;;;;21.43;3.80;;;;;;;4.78;100.00;101184.91;5049034;28;20036;-64
2023/01/14 04:06:17;;;;;;;24.10;4.80;;;;;;;4.83;100.00;101171.44;5049118;28;20481;-64
2023/01/14 04:08:42;;;;;;;19.23;3.35;;;;;;;4.86;100.00;101167.38;5048594;28;20068;-64
2023/01/14 04:11:08;;;;;;;25.23;4.20;;;;;;;4.86;100.00;101161.34;5048700;28;20048;-64
2023/01/14 04:16:17;;;;;;;16.77;3.65;;;;;;;4.87;100.00;101145.16;5048851;28;20512;-64
2023/01/14 04:18:42;;;;;;;21.40;4.20;;;;;;;4.90;100.00;101137.63;5048065;28;20029;-64
2023/01/14 04:21:08;;;;;;;20.63;3.90;;;;;;;4.90;100.00;101135.06;5046807;28;20025;-64
2023/01/14 04:23:33;;;;;;;23.80;4.18;;;;;;;4.89;100.00;101130.72;5048180;28;20025;-64
2023/01/14 04:25:59;;;;;;;17.23;3.47;;;;;;;4.92;100.00;101126.66;5048344;28;20021;-64
2023/01/14 04:28:26;;;;;;;21.73;4.00;;;;;;;4.88;100.00;101126.38;5048524;28;20364;-64
2023/01/14 04:30:51;;;;;;;18.77;4.00;;;;;;;4.85;100.00;101123.63;5048172;28;20107;-64
2023/01/14 04:33:16;;;;;;;20.40;4.13;;;;;;;4.91;100.00;101124.00;5048350;28;20036;-64
2023/01/14 04:35:45;;;;;;;19.60;4.00;;;;;;;4.88;100.00;101103.25;5047871;28;20028;-64
2023/01/14 04:38:10;;;;;;;25.00;4.97;;;;;;;4.89;100.00;101102.47;5047803;28;20356;-64
2023/01/14 04:40:36;;;;;;;18.43;3.47;;;;;;;4.83;100.00;101104.66;5048177;28;20126;-64
2023/01/14 04:43:01;;;;;;;20.70;4.13;;;;;;;4.82;100.00;101102.91;5047328;28;20052;-64
2023/01/14 04:45:26;;;;;;;17.97;3.83;;;;;;;4.78;100.00;101096.69;5047975;28;20036;-64
2023/01/14 04:47:51;;;;;;;23.27;4.37;;;;;;;4.80;100.00;101100.25;5048077;28;20108;-64
2023/01/14 04:50:34;;;;;;;16.40;3.30;;;;;;;4.77;100.00;101095.78;5047776;28;20060;-64
2023/01/14 04:53:09;;;;;;;20.30;3.60;;;;;;;4.83;100.00;101102.09;5047563;28;20020;-64
2023/01/14 04:55:39;;;;;;;24.15;4.75;;;;;;;4.74;100.00;101089.59;5046323;28;20067;-64
2023/01/14 04:58:06;;;;;;;14.05;3.45;;;;;;;4.72;100.00;101097.19;5047659;28;20024;-64
2023/01/14 05:00:32;;;;;;;13.90;3.37;;;;;;;4.76;100.00;101088.00;5047665;28;20033;-64
2023/01/14 05:02:58;;;;;;;12.53;3.83;;;;;;;4.74;100.00;101082.78;5047638;28;20033;-64
2023/01/14 05:05:23;;;;;;;21.60;4.60;;;;;;;4.71;100.00;101085.19;5047823;28;20035;-64
2023/01/14 05:07:48;;;;;;;19.77;4.27;;;;;;;4.73;100.00;101073.28;5047322;28;20166;-64
2023/01/14 05:10:15;;;;;;;17.80;3.23;;;;;;;4.75;100.00;101071.69;5047616;28;20102;-64
2023/01/14 05:12:55;;;;;;;21.70;3.13;;;;;;;4.74;100.00;101061.34;5047851;28;20126;-64
2023/01/14 05:15:28;;;;;;;17.67;3.28;;;;;;;4.74;100.00;101059.66;5047916;28;20104;-64
2023/01/14 05:17:54;;;;;;;17.63;4.80;;;;;;;4.75;100.00;101056.28;5047061;28;20489;-64
2023/01/14 05:20:21;;;;;;;20.92;3.65;;;;;;;4.76;100.00;101052.06;5047249;28;20033;-64
2023/01/14 05:22:46;;;;;;;14.17;4.13;;;;;;;4.76;100.00;101045.25;5046700;28;20025;-64
2023/01/14 05:25:13;;;;;;;18.57;3.37;;;;;;;4.77;100.00;101034.16;5047288;28;20112;-64
2023/01/14 05:27:38;;;;;;;17.48;3.13;;;;;;;4.77;100.00;101028.13;5047214;28;20025;-64
2023/01/14 05:30:04;;;;;;;18.40;3.93;;;;;;;4.77;100.00;101029.03;5047331;28;20025;-64
2023/01/14 05:32:30;;;;;;;13.40;3.75;;;;;;;4.83;100.00;101022.47;5047117;28;20086;-63
2023/01/14 05:34:55;;;;;;;17.23;3.40;;;;;;;4.80;100.00;101007.81;5047382;28;20017;-63
2023/01/14 05:37:20;;;;;;;18.97;3.90;;;;;;;4.79;100.00;100991.50;5047178;28;20017;-64
2023/01/14 05:39:45;;;;;;;12.43;3.83;;;;;;;4.82;100.00;100985.66;5047159;28;20443;-64
2023/01/14 05:47:40;;;;;;;14.57;3.20;;;;;;;4.88;100.00;100972.28;5047507;28;20047;-64
2023/01/14 05:50:05;;;;;;;14.33;3.20;;;;;;;4.87;100.00;100971.41;5049243;28;20049;-64
2023/01/14 05:52:31;;;;;;;19.37;3.80;;;;;;;4.88;100.00;100965.47;5051387;28;20501;-64
2023/01/14 05:54:56;;;;;;;16.92;2.67;;;;;;;4.92;100.00;100954.56;5050419;28;20025;-63
2023/01/14 05:57:21;;;;;;;17.77;2.87;;;;;;;4.94;100.00;100949.53;5051280;28;20120;-64
2023/01/14 05:59:47;;;;;;;16.75;3.00;;;;;;;4.97;100.00;100934.28;5051039;28;20079;-63
2023/01/14 06:07:39;;;;;;;13.80;2.97;;;;;;;5.01;100.00;100925.94;5050914;28;20048;-64
2023/01/14 06:10:05;;;;;;;22.33;3.13;;;;;;;5.02;100.00;100922.56;5051148;28;20029;-64
2023/01/14 06:12:57;;;;;;;14.13;2.83;;;;;;;5.05;100.00;100919.31;5050834;28;20098;-64
2023/01/14 06:15:19;;;;;;;15.43;3.30;;;;;;;5.12;100.00;100912.81;5050747;28;20388;-64
2023/01/14 06:17:46;;;;;;;14.20;3.67;;;;;;;5.17;100.00;100906.25;5050880;28;20017;-64
2023/01/14 06:20:12;;;;;;;15.63;2.92;;;;;;;5.16;100.00;100899.34;5050316;28;20033;-64
2023/01/14 06:22:38;;;;;;;19.10;3.23;;;;;;;5.20;100.00;100891.00;5050536;28;20028;-64
2023/01/14 06:25:04;;;;;;;16.15;2.55;;;;;;;5.26;100.00;100882.75;5050568;28;20058;-64
2023/01/14 06:27:29;;;;;;;17.05;3.45;;;;;;;5.27;100.00;100881.94;5050454;28;20354;-64
2023/01/14 06:29:54;;;;;;;10.98;3.70;;;;;;;5.25;100.00;100875.84;5049764;28;20064;-64
2023/01/14 06:32:19;;;;;;;19.48;4.07;;;;;;;5.24;100.00;100872.38;5050562;28;20029;-64
2023/01/14 06:34:45;;;;;;;14.75;2.88;;;;;;;5.25;100.00;100865.56;5050337;28;20512;-64
2023/01/14 06:37:10;;;;;;;12.48;2.88;;;;;;;5.24;100.00;100862.09;5050310;28;20059;-64
2023/01/14 06:39:35;;;;;;;14.10;2.20;;;;;;;5.28;100.00;100851.19;5050030;28;20094;-64
2023/01/14 06:42:00;;;;;;;15.60;2.90;;;;;;;5.24;100.00;100851.81;5050354;28;20023;-64
2023/01/14 06:44:27;;;;;;;14.43;3.08;;;;;;;5.24;100.00;100836.41;5050279;28;20087;-64
2023/01/14 06:46:52;;;;;;;13.40;3.25;;;;;;;5.27;100.00;100839.13;5050281;28;20757;-64
2023/01/14 06:49:17;;;;;;;17.80;3.15;;;;;;;5.26;100.00;100839.06;5050009;28;20025;-64
2023/01/14 06:51:43;;;;;;;11.75;2.40;;;;;;;5.26;100.00;100819.38;5049329;28;20406;-64
2023/01/14 06:54:08;;;;;;;13.68;2.22;;;;;;;5.24;100.00;100815.84;5049878;28;20083;-64
2023/01/14 06:56:34;;;;;;;13.77;2.75;;;;;;;5.23;100.00;100819.22;5049816;28;20029;-64
2023/01/14 06:58:59;;;;;;;12.63;3.13;;;;;;;5.25;100.00;100812.47;5050144;28;20020;-64
2023/01/14 07:01:24;;;;;;;15.52;2.80;;;;;;;5.24;100.00;100805.56;5049796;28;20021;-64
2023/01/14 07:03:50;;;;;;;12.60;2.60;;;;;;;5.26;100.00;100793.69;5049757;28;20096;-64
2023/01/14 07:06:15;;;;;;;16.75;3.10;;;;;;;5.26;100.00;100795.38;5049342;28;20321;-64
2023/01/14 07:08:41;;;;;;;15.15;2.83;;;;;;;5.22;100.00;100788.28;5049896;28;20021;-64
2023/01/14 07:11:06;;;;;;;16.40;2.78;;;;;;;5.19;100.00;100781.31;5049668;28;20033;-64
2023/01/14 07:13:32;;;;;;;11.10;2.67;;;;;;;5.16;100.00;100773.47;5049809;28;20603;-64
2023/01/14 07:15:57;;;;;;;15.98;2.45;;;;;;;5.17;100.00;100762.38;5049529;28;20558;-64
2023/01/14 07:18:23;;;;;;;14.10;3.20;;;;;;;5.18;100.00;100756.41;5049289;28;20071;-64
2023/01/14 07:20:48;;;;;;;11.13;2.47;;;;;;;5.18;100.00;100752.97;5049558;28;20021;-64
2023/01/14 07:23:13;;;;;;;15.13;3.45;;;;;;;5.19;100.00;100729.03;5049622;28;20725;-64
2023/01/14 07:25:39;;;;;;;16.90;3.33;;;;;;;5.21;100.00;100723.19;5048992;28;20473;-64
2023/01/14 07:28:05;;;;;;;12.07;3.55;;;;;;;5.18;100.00;100723.00;5048988;28;20028;-64
2023/01/14 07:30:30;;;;;;;15.23;3.05;;;;;;;5.19;100.00;100714.53;5049151;28;20037;-64
2023/01/14 07:33:00;;;;;;;10.07;4.10;;;;;;;5.18;100.00;100711.88;5049005;28;20025;-64
2023/01/14 07:35:27;;;;;;;11.43;2.75;;;;;;;5.17;100.00;100721.25;5049026;28;20108;-64
2023/01/14 07:37:54;;;;;;;11.05;2.60;;;;;;;5.18;100.00;100712.72;5048717;28;20024;-64
2023/01/14 07:40:19;;;;;;;9.45;2.58;;;;;;;5.19;100.00;100704.25;5049203;28;20031;-64
2023/01/14 07:42:45;;;;;;;14.93;3.80;;;;;;;5.20;100.00;100700.00;5048912;28;20029;-64
2023/01/14 07:45:10;;;;;;;12.45;2.85;;;;;;;5.19;100.00;100687.94;5048958;28;20025;-64
2023/01/14 07:47:35;;;;;;;12.50;3.08;;;;;;;5.19;100.00;100682.78;5048732;28;20581;-64
2023/01/14 07:50:01;;;;;;;9.73;2.80;;;;;;;5.25;100.00;100667.72;5048376;28;20050;-64
2023/01/14 07:52:26;;;;;;;11.18;2.40;;;;;;;5.23;100.00;100659.94;5047230;28;20033;-64
2023/01/14 07:54:51;;;;;;;11.38;3.08;;;;;;;5.23;100.00;100656.47;5047278;28;20048;-64
2023/01/14 07:57:17;;;;;;;8.88;2.92;;;;;;;5.22;100.00;100650.44;5047693;28;20106;-64
2023/01/14 07:59:42;;;;;;;9.05;2.47;;;;;;;5.27;100.00;100636.13;5046302;28;20366;-64
2023/01/14 08:02:11;;;;;;;8.27;2.35;;;;;;;5.31;100.00;100636.31;5047226;28;20035;-64
2023/01/14 08:04:37;;;;;;;8.63;2.67;;;;;;;5.33;100.00;100625.28;5046767;28;20033;-64
2023/01/14 08:07:05;;;;;;;10.40;2.90;;;;;;;5.35;100.00;100612.50;5047044;28;20032;-64
2023/01/14 08:09:31;;;;;;;8.27;2.25;;;;;;;5.36;100.00;100596.31;5047296;28;20036;-64
2023/01/14 08:11:56;;;;;;;12.15;2.75;;;;;;;5.36;100.00;100593.72;5047746;28;20033;-64
2023/01/14 08:14:22;;;;;;;8.77;2.33;;;;;;;5.35;100.00;100591.94;5047352;28;20094;-63
2023/01/14 08:16:47;;;;;;;7.75;2.25;;;;;;;5.40;100.00;100581.09;5047295;28;20503;-64
2023/01/14 08:19:12;;;;;;;8.20;2.33;;;;;;;5.41;100.00;100558.84;5048844;28;20054;-64
2023/01/14 08:21:38;;;;;;;7.85;1.90;;;;;;;5.44;100.00;100573.53;5048438;28;20065;-64
2023/01/14 08:24:04;;;;;;;8.90;2.55;;;;;;;5.46;100.00;100564.22;5048713;28;20629;-64
2023/01/14 08:26:29;;;;;;;7.90;2.10;;;;;;;5.46;100.00;100552.25;5048310;28;20025;-64
2023/01/14 08:28:54;;;;;;;8.07;2.22;;;;;;;5.52;100.00;100525.97;5047836;28;20029;-64
2023/01/14 08:31:20;;;;;;;8.85;1.95;;;;;;;5.51;100.00;100517.34;5047745;28;20039;-64
2023/01/14 08:33:45;;;;;;;3.42;1.48;;;;;;;5.49;100.00;100524.09;5048198;28;20147;-64
2023/01/14 08:36:13;;;;;;;6.07;2.10;;;;;;;5.53;100.00;100510.59;5048195;28;20111;-64
2023/01/14 08:38:40;;;;;;;7.93;1.80;;;;;;;5.60;100.00;100505.75;5047849;28;20028;-64
2023/01/14 08:41:08;;;;;;;7.63;1.80;;;;;;;5.65;100.00;100509.41;5047604;28;20044;-64
2023/01/14 08:43:33;;;;;;;6.82;1.75;;;;;;;5.69;100.00;100485.59;5048240;28;20373;-64
2023/01/14 08:46:00;;;;;;;3.13;1.60;;;;;;;5.71;100.00;100493.38;5048095;28;20033;-64
2023/01/14 08:48:25;;;;;;;5.28;1.13;;;;;;;5.73;100.00;100484.06;5048233;28;20126;-64
2023/01/14 08:50:50;;;;;;;4.68;1.45;;;;;;;5.79;100.00;100475.75;5048032;28;20064;-63
2023/01/14 08:53:16;;;;;;;5.25;1.38;;;;;;;5.86;100.00;100462.38;5047515;28;20439;-64
2023/01/14 08:55:41;;;;;;;4.75;1.33;;;;;;;5.82;100.00;100460.44;5046294;28;20101;-64
2023/01/14 08:58:07;;;;;;;3.17;1.35;;;;;;;5.86;100.00;100464.94;5047936;28;20076;-64
2023/01/14 09:00:33;;;;;;;3.65;1.42;;;;;;;5.91;100.00;100440.31;5047354;28;20025;-64
2023/01/14 09:02:59;;;;;;;3.72;1.30;;;;;;;5.93;100.00;100420.69;5048022;28;20492;-64
2023/01/14 09:05:24;;;;;;;5.63;1.30;;;;;;;5.93;100.00;100418.09;5047915;28;20055;-64
2023/01/14 09:18:49;;;;;;;3.83;1.08;;;;;;;6.01;100.00;100385.88;5047676;28;20040;-64
2023/01/14 09:21:14;;;;;;;4.88;1.73;;;;;;;6.05;100.00;100380.84;5046576;28;20469;-64
2023/01/14 09:23:40;;;;;;;7.68;1.92;;;;;;;6.06;100.00;100383.50;5046369;28;20029;-64
2023/01/14 09:26:05;;;;;;;6.20;1.45;;;;;;;6.06;100.00;100380.94;5047566;28;20328;-64
2023/01/14 09:28:30;;;;;;;8.15;1.50;;;;;;;6.09;100.00;100367.34;5047114;28;20035;-64
2023/01/14 09:30:55;;;;;;;5.22;1.38;;;;;;;6.11;100.00;100366.63;5046762;28;20036;-64
2023/01/14 09:33:21;;;;;;;7.50;2.28;;;;;;;6.17;100.00;100350.53;5047397;28;20351;-64
2023/01/14 09:35:46;;;;;;;6.28;1.60;;;;;;;6.22;100.00;100348.16;5047038;28;20036;-64
2023/01/14 09:38:11;;;;;;;4.90;1.35;;;;;;;6.19;100.00;100338.63;5047366;28;20052;-64
2023/01/14 09:40:39;;;;;;;7.20;1.40;;;;;;;6.21;100.00;100331.84;5047593;28;20809;-64
2023/01/14 09:43:05;;;;;;;4.10;1.30;;;;;;;6.22;100.00;100330.16;5045866;28;20031;-64
2023/01/14 09:45:33;;;;;;;7.45;1.65;;;;;;;6.25;100.00;100312.25;5047058;28;20028;-64
2023/01/14 09:48:25;;;;;;;5.60;1.58;;;;;;;6.27;100.00;100302.03;5047405;28;20060;-64
2023/01/14 09:51:05;;;;;;;8.38;1.90;;;;;;;6.28;100.00;100306.38;5045391;28;20052;-64
2023/01/14 09:53:56;;;;;;;6.53;2.53;;;;;;;6.29;100.00;100298.72;5047299;28;20036;-64
2023/01/14 09:56:27;;;;;;;6.03;1.17;;;;;;;6.34;100.00;100291.16;5046538;28;20040;-64
2023/01/14 09:58:57;;;;;;;8.27;1.50;;;;;;;6.35;100.00;100298.94;5046975;28;20280;-64
2023/01/14 10:01:49;;;;;;;6.03;1.55;;;;;;;6.37;100.00;100286.13;5047614;28;20151;-64
2023/01/14 10:04:27;;;;;;;9.95;1.83;;;;;;;6.41;100.00;100284.56;5046849;28;20420;-64
2023/01/14 10:06:55;;;;;;;4.85;1.50;;;;;;;6.41;100.00;100264.88;5047139;28;20051;-64
2023/01/14 10:09:33;;;;;;;4.40;1.40;;;;;;;6.47;100.00;100256.50;5047196;28;20175;-64
2023/01/14 10:12:01;;;;;;;6.00;1.60;;;;;;;6.52;100.00;100251.53;5046767;28;20280;-64
2023/01/14 10:14:40;;;;;;;5.40;1.77;;;;;;;6.59;100.00;100240.66;5046853;28;20111;-64
2023/01/14 10:17:11;;;;;;;5.63;2.03;;;;;;;6.59;100.00;100220.06;5047036;28;20033;-64
2023/01/14 10:19:43;;;;;;;8.63;2.00;;;;;;;6.63;100.00;100208.19;5046862;28;20088;-64
2023/01/14 10:22:15;;;;;;;6.05;1.63;;;;;;;6.65;100.00;100204.88;5046606;28;20271;-64
2023/01/14 10:24:42;;;;;;;7.57;1.60;;;;;;;6.70;100.00;100199.88;5047240;28;20051;-65
2023/01/14 10:27:13;;;;;;;6.70;1.60;;;;;;;6.75;100.00;100187.16;5046903;28;20116;-64
2023/01/14 10:29:39;;;;;;;;;;;;;;;6.77;100.00;100178.69;5047127;28;20440;-64
2023/01/14 10:32:04;;;;;;;5.35;1.25;;;;;;;6.81;100.00;100164.22;5046920;28;20003;-64
2023/01/14 10:34:40;;;;;;;4.97;1.30;;;;;;;6.85;100.00;100169.53;5046857;28;20067;-64
2023/01/14 10:37:07;;;;;;;4.90;1.30;;;;;;;6.86;100.00;100162.69;5050352;28;20033;-64
2023/01/14 10:39:32;;;;;;;5.10;1.48;;;;;;;6.93;100.00;100164.66;5050628;28;20120;-64
2023/01/14 10:42:00;;;;;;;5.78;1.65;;;;;;;7.00;100.00;100159.75;5050305;28;20047;-65
2023/01/14 10:44:38;;;;;;;6.97;1.75;;;;;;;7.00;100.00;100146.88;5050438;28;20099;-64
2023/01/14 10:47:10;;;;;;;6.45;0.93;;;;;;;7.02;100.00;100140.03;5049961;28;20036;-64
2023/01/14 10:49:44;;;;;;;6.32;1.50;;;;;;;7.03;100.00;100116.94;5050203;28;20027;-64
2023/01/14 10:52:21;;;;;;;4.97;1.40;;;;;;;7.06;100.00;100121.31;5050071;28;20047;-64
2023/01/14 10:54:56;;;;;;;5.75;1.42;;;;;;;7.10;100.00;100105.13;5049956;28;20478;-64
2023/01/14 10:57:21;;;;;;;4.13;1.48;;;;;;;7.12;100.00;100103.50;5049839;28;20033;-64
2023/01/14 10:59:52;;;;;;;4.50;1.00;;;;;;;7.16;100.00;100105.34;5050013;28;20127;-64
2023/01/14 11:02:37;;;;;;;6.50;1.38;;;;;;;7.18;100.00;100090.81;5049991;28;20040;-64
2023/01/14 11:05:06;;;;;;;3.83;1.23;;;;;;;7.21;100.00;100083.16;5049756;28;20040;-64
2023/01/14 11:07:40;;;;;;;2.60;1.13;;;;;;;7.26;100.00;100075.59;5049615;28;20024;-64
2023/01/14 11:10:24;;;;;;;3.95;1.55;;;;;;;7.29;100.00;100069.66;5050075;28;20124;-64
2023/01/14 11:12:53;;;;;;;5.85;1.67;;;;;;;7.30;100.00;100056.81;5049736;28;20036;-64
2023/01/14 11:15:40;;;;;;;5.20;2.00;;;;;;;7.34;100.00;100042.34;5049835;28;20044;-64
2023/01/14 11:18:30;;;;;;;5.50;1.27;;;;;;;7.33;100.00;100051.78;5049163;28;20037;-64
2023/01/14 11:21:06;;;;;;;3.67;1.15;;;;;;;7.33;100.00;100041.47;5043973;28;20401;-64
2023/01/14 11:23:44;;;;;;;2.47;0.90;;;;;;;7.42;100.00;100043.47;5049195;28;20037;-64
2023/01/14 11:26:12;;;;;;;5.75;0.98;;;;;;;7.44;100.00;100033.22;5049290;28;20032;-65
2023/01/14 11:28:43;;;;;;;2.38;1.15;;;;;;;7.49;100.00;100030.75;5049303;28;20044;-64
2023/01/14 11:31:08;;;;;;;3.40;0.75;;;;;;;7.51;100.00;100018.81;5049724;28;20496;-64
2023/01/14 11:33:34;;;;;;;1.88;1.02;;;;;;;7.52;100.00;99999.94;5049955;28;20109;-64
2023/01/14 11:36:02;;;;;;;3.03;1.00;;;;;;;7.55;100.00;99995.75;5048983;28;20074;-64
2023/01/14 11:38:44;;;;;;;3.40;1.00;;;;;;;7.54;100.00;100003.41;5049176;28;20036;-64
2023/01/14 11:41:32;;;;;;;2.55;0.80;;;;;;;7.55;100.00;99985.44;5049516;28;20021;-64
2023/01/14 11:44:21;;;;;;;2.10;0.90;;;;;;;7.61;100.00;99979.56;5049253;28;20043;-64
2023/01/14 11:47:11;;;;;;;2.20;0.93;;;;;;;7.61;100.00;99974.41;5048240;28;20041;-64
2023/01/14 11:49:36;;;;;;;3.78;0.88;;;;;;;7.62;100.00;99972.72;5049240;28;20036;-64
2023/01/14 11:52:05;;;;;;;5.00;1.20;;;;;;;7.62;100.00;99955.56;5049139;28;20485;-64
2023/01/14 11:54:38;;;;;;;2.67;1.02;;;;;;;7.65;100.00;99963.38;5047715;28;20034;-64
2023/01/14 11:57:05;;;;;;;2.28;0.90;;;;;;;7.66;100.00;99966.84;5048902;28;20059;-64
2023/01/14 11:59:33;;;;;;;2.05;0.70;;;;;;;7.65;100.00;99960.81;5048641;28;20048;-64
2023/01/14 12:02:11;;;;;;;1.45;0.65;;;;;;;7.68;100.00;99942.84;5049458;28;20021;-65
2023/01/14 12:04:49;;;;;;;4.47;1.15;;;;;;;7.71;100.00;99938.59;5049040;28;20108;-64